sensor_id;sensor_type;location;lat;lon;timestamp;pressure;altitude;pressure_sealevel;temperature
25985;BMP280;66753;53.848;10.658;2024-03-22T00:14:03;101950.91;;;9.34
25985;BMP280;66753;53.848;10.658;2024-03-22T00:29:04;101909.22;;;9.40
25985;BMP280;66753;53.848;10.658;2024-03-22T00:44:07;101900.78;;;9.38
25985;BMP280;66753;53.848;10.658;2024-03-22T00:59:08;101883.16;;;9.47
25985;BMP280;66753;53.848;10.658;2024-03-22T01:14:10;101838.94;;;9.47
25985;BMP280;66753;53.848;10.658;2024-03-22T01:29:13;101820.31;;;9.52
25985;BMP280;66753;53.848;10.658;2024-03-22T01:44:15;101792.34;;;9.60
25985;BMP280;66753;53.848;10.658;2024-03-22T01:59:17;101771.03;;;9.65
25985;BMP280;66753;53.848;10.658;2024-03-22T02:14:19;101750.88;;;9.69
25985;BMP280;66753;53.848;10.658;2024-03-22T02:29:20;101753.38;;;9.74
25985;BMP280;66753;53.848;10.658;2024-03-22T02:44:22;101730.22;;;9.79
25985;BMP280;66753;53.848;10.658;2024-03-22T02:59:27;101709.19;;;9.83
25985;BMP280;66753;53.848;10.658;2024-03-22T03:14:29;101671.34;;;9.82
25985;BMP280;66753;53.848;10.658;2024-03-22T03:29:30;101668.09;;;9.85
25985;BMP280;66753;53.848;10.658;2024-03-22T03:44:31;101653.66;;;9.91
25985;BMP280;66753;53.848;10.658;2024-03-22T03:59:32;101621.56;;;10.01
25985;BMP280;66753;53.848;10.658;2024-03-22T04:14:34;101611.16;;;10.05
25985;BMP280;66753;53.848;10.658;2024-03-22T04:29:35;101575.97;;;10.13
25985;BMP280;66753;53.848;10.658;2024-03-22T04:44:36;101544.53;;;10.20
25985;BMP280;66753;53.848;10.658;2024-03-22T04:59:38;101547.16;;;10.28
25985;BMP280;66753;53.848;10.658;2024-03-22T05:14:40;101542.97;;;10.36
25985;BMP280;66753;53.848;10.658;2024-03-22T05:29:42;101510.69;;;10.42
25985;BMP280;66753;53.848;10.658;2024-03-22T05:44:47;101504.91;;;10.49
25985;BMP280;66753;53.848;10.658;2024-03-22T05:59:48;101517.38;;;10.57
25985;BMP280;66753;53.848;10.658;2024-03-22T06:14:50;101504.94;;;10.66
25985;BMP280;66753;53.848;10.658;2024-03-22T06:29:52;101491.34;;;10.84
25985;BMP280;66753;53.848;10.658;2024-03-22T06:44:53;101471.56;;;11.11
25985;BMP280;66753;53.848;10.658;2024-03-22T06:59:54;101438.13;;;11.27
25985;BMP280;66753;53.848;10.658;2024-03-22T07:14:55;101414.88;;;11.53
25985;BMP280;66753;53.848;10.658;2024-03-22T07:29:58;101402.66;;;11.81
25985;BMP280;66753;53.848;10.658;2024-03-22T07:45:00;101410.06;;;12.08
25985;BMP280;66753;53.848;10.658;2024-03-22T08:00:01;101412.16;;;12.35
25985;BMP280;66753;53.848;10.658;2024-03-22T08:15:02;101390.84;;;12.79
25985;BMP280;66753;53.848;10.658;2024-03-22T08:30:05;101400.50;;;12.72
25985;BMP280;66753;53.848;10.658;2024-03-22T08:45:08;101374.97;;;12.59
25985;BMP280;66753;53.848;10.658;2024-03-22T09:00:09;101349.81;;;12.56
25985;BMP280;66753;53.848;10.658;2024-03-22T09:15:11;101343.75;;;12.56
25985;BMP280;66753;53.848;10.658;2024-03-22T09:30:12;101327.25;;;12.62
25985;BMP280;66753;53.848;10.658;2024-03-22T09:45:15;101318.34;;;12.46
25985;BMP280;66753;53.848;10.658;2024-03-22T10:00:19;101322.22;;;12.73
25985;BMP280;66753;53.848;10.658;2024-03-22T10:15:26;101315.34;;;12.96
25985;BMP280;66753;53.848;10.658;2024-03-22T10:30:28;101319.16;;;12.83
25985;BMP280;66753;53.848;10.658;2024-03-22T10:45:32;101318.94;;;12.64
25985;BMP280;66753;53.848;10.658;2024-03-22T11:00:34;101323.34;;;12.60
25985;BMP280;66753;53.848;10.658;2024-03-22T11:15:36;101302.53;;;12.50
25985;BMP280;66753;53.848;10.658;2024-03-22T11:30:38;101299.06;;;12.37
25985;BMP280;66753;53.848;10.658;2024-03-22T11:45:40;101293.06;;;12.28
25985;BMP280;66753;53.848;10.658;2024-03-22T12:00:43;101277.88;;;12.17
25985;BMP280;66753;53.848;10.658;2024-03-22T12:15:44;101272.13;;;12.27
25985;BMP280;66753;53.848;10.658;2024-03-22T12:30:47;101257.41;;;12.41
25985;BMP280;66753;53.848;10.658;2024-03-22T12:45:50;101258.84;;;12.15
25985;BMP280;66753;53.848;10.658;2024-03-22T13:00:51;101260.50;;;12.19
25985;BMP280;66753;53.848;10.658;2024-03-22T13:15:56;101258.84;;;12.63
25985;BMP280;66753;53.848;10.658;2024-03-22T13:31:02;101217.22;;;12.43
25985;BMP280;66753;53.848;10.658;2024-03-22T13:46:06;101216.78;;;12.29
25985;BMP280;66753;53.848;10.658;2024-03-22T14:01:08;101210.22;;;12.38
25985;BMP280;66753;53.848;10.658;2024-03-22T14:16:11;101192.50;;;12.42
25985;BMP280;66753;53.848;10.658;2024-03-22T14:31:12;101193.97;;;12.04
25985;BMP280;66753;53.848;10.658;2024-03-22T14:46:14;101164.03;;;11.83
25985;BMP280;66753;53.848;10.658;2024-03-22T15:01:18;101140.56;;;11.73
25985;BMP280;66753;53.848;10.658;2024-03-22T15:16:19;101126.72;;;11.91
25985;BMP280;66753;53.848;10.658;2024-03-22T15:31:20;101123.28;;;11.79
25985;BMP280;66753;53.848;10.658;2024-03-22T15:46:22;101133.50;;;11.89
25985;BMP280;66753;53.848;10.658;2024-03-22T16:01:24;101105.72;;;11.86
25985;BMP280;66753;53.848;10.658;2024-03-22T16:16:26;101085.66;;;11.65
25985;BMP280;66753;53.848;10.658;2024-03-22T16:31:27;101092.06;;;11.52
25985;BMP280;66753;53.848;10.658;2024-03-22T16:46:30;101095.03;;;11.38
25985;BMP280;66753;53.848;10.658;2024-03-22T17:01:31;101075.06;;;11.20
25985;BMP280;66753;53.848;10.658;2024-03-22T17:16:33;101080.69;;;11.07
25985;BMP280;66753;53.848;10.658;2024-03-22T17:31:34;101091.66;;;10.85
25985;BMP280;66753;53.848;10.658;2024-03-22T17:46:36;101079.81;;;10.62
25985;BMP280;66753;53.848;10.658;2024-03-22T18:01:37;101067.78;;;10.44
25985;BMP280;66753;53.848;10.658;2024-03-22T18:16:38;101064.19;;;10.28
25985;BMP280;66753;53.848;10.658;2024-03-22T18:31:41;101056.06;;;10.04
25985;BMP280;66753;53.848;10.658;2024-03-22T18:46:42;101057.19;;;9.94
25985;BMP280;66753;53.848;10.658;2024-03-22T19:01:45;101058.97;;;9.82
25985;BMP280;66753;53.848;10.658;2024-03-22T19:16:46;101044.63;;;9.83
25985;BMP280;66753;53.848;10.658;2024-03-22T19:31:47;101051.81;;;9.74
25985;BMP280;66753;53.848;10.658;2024-03-22T19:46:49;101032.22;;;9.66
25985;BMP280;66753;53.848;10.658;2024-03-22T20:01:50;101022.00;;;9.56
25985;BMP280;66753;53.848;10.658;2024-03-22T20:16:53;101042.88;;;9.49
25985;BMP280;66753;53.848;10.658;2024-03-22T20:31:54;101037.03;;;9.35
